sensor_id;sensor_type;location;lat;lon;timestamp;P1;durP1;ratioP1;P2;durP2;ratioP2
11313;SDS011;5712;48.858;9.206;2023-12-20T00:00:37;1.53;;;1.20;;
11313;SDS011;5712;48.858;9.206;2023-12-20T00:03:03;2.07;;;1.13;;
11313;SDS011;5712;48.858;9.206;2023-12-20T00:05:30;1.50;;;1.40;;
11313;SDS011;5712;48.858;9.206;2023-12-20T00:07:57;1.53;;;1.30;;
11313;SDS011;5712;48.858;9.206;2023-12-20T00:10:23;3.10;;;1.60;;
11313;SDS011;5712;48.858;9.206;2023-12-20T00:12:50;2.50;;;1.30;;
11313;SDS011;5712;48.858;9.206;2023-12-20T00:15:18;1.33;;;1.20;;
11313;SDS011;5712;48.858;9.206;2023-12-20T00:17:44;1.97;;;1.40;;
11313;SDS011;5712;48.858;9.206;2023-12-20T00:20:11;1.30;;;1.20;;
11313;SDS011;5712;48.858;9.206;2023-12-20T00:22:38;1.40;;;1.13;;
11313;SDS011;5712;48.858;9.206;2023-12-20T00:25:05;1.33;;;1.20;;
11313;SDS011;5712;48.858;9.206;2023-12-20T00:27:31;1.43;;;1.33;;
11313;SDS011;5712;48.858;9.206;2023-12-20T00:29:58;2.30;;;1.57;;
11313;SDS011;5712;48.858;9.206;2023-12-20T00:32:26;1.43;;;1.33;;
11313;SDS011;5712;48.858;9.206;2023-12-20T00:34:53;2.33;;;1.23;;
11313;SDS011;5712;48.858;9.206;2023-12-20T00:37:19;1.70;;;1.20;;
11313;SDS011;5712;48.858;9.206;2023-12-20T00:39:46;2.17;;;1.40;;
11313;SDS011;5712;48.858;9.206;2023-12-20T00:42:12;2.03;;;1.60;;
11313;SDS011;5712;48.858;9.206;2023-12-20T00:44:38;1.77;;;1.37;;
11313;SDS011;5712;48.858;9.206;2023-12-20T00:47:05;1.33;;;1.23;;
11313;SDS011;5712;48.858;9.206;2023-12-20T00:49:33;1.47;;;1.37;;
11313;SDS011;5712;48.858;9.206;2023-12-20T00:51:59;3.07;;;1.80;;
11313;SDS011;5712;48.858;9.206;2023-12-20T00:54:26;3.13;;;1.67;;
11313;SDS011;5712;48.858;9.206;2023-12-20T00:56:53;2.03;;;1.83;;
11313;SDS011;5712;48.858;9.206;2023-12-20T00:59:20;2.00;;;1.57;;
11313;SDS011;5712;48.858;9.206;2023-12-20T01:01:46;2.70;;;1.50;;
11313;SDS011;5712;48.858;9.206;2023-12-20T01:04:12;2.77;;;1.53;;
11313;SDS011;5712;48.858;9.206;2023-12-20T01:06:40;2.50;;;1.80;;
11313;SDS011;5712;48.858;9.206;2023-12-20T01:09:07;1.90;;;1.60;;
11313;SDS011;5712;48.858;9.206;2023-12-20T01:11:33;2.77;;;1.87;;
11313;SDS011;5712;48.858;9.206;2023-12-20T01:14:00;1.87;;;1.70;;
11313;SDS011;5712;48.858;9.206;2023-12-20T01:16:26;3.27;;;2.00;;
11313;SDS011;5712;48.858;9.206;2023-12-20T01:18:53;2.77;;;2.00;;
11313;SDS011;5712;48.858;9.206;2023-12-20T01:21:19;2.50;;;1.90;;
11313;SDS011;5712;48.858;9.206;2023-12-20T01:23:47;2.43;;;2.07;;
11313;SDS011;5712;48.858;9.206;2023-12-20T01:26:14;3.70;;;2.27;;
11313;SDS011;5712;48.858;9.206;2023-12-20T01:28:41;2.37;;;1.90;;
11313;SDS011;5712;48.858;9.206;2023-12-20T01:31:08;2.03;;;1.87;;
11313;SDS011;5712;48.858;9.206;2023-12-20T01:33:34;4.50;;;1.97;;
11313;SDS011;5712;48.858;9.206;2023-12-20T01:36:01;4.43;;;2.33;;
11313;SDS011;5712;48.858;9.206;2023-12-20T01:38:27;3.03;;;2.10;;
11313;SDS011;5712;48.858;9.206;2023-12-20T01:40:55;2.87;;;2.27;;
11313;SDS011;5712;48.858;9.206;2023-12-20T01:43:22;4.70;;;2.50;;
11313;SDS011;5712;48.858;9.206;2023-12-20T01:45:48;2.53;;;2.10;;
11313;SDS011;5712;48.858;9.206;2023-12-20T01:48:15;3.43;;;2.40;;
11313;SDS011;5712;48.858;9.206;2023-12-20T01:50:44;3.27;;;2.33;;
11313;SDS011;5712;48.858;9.206;2023-12-20T01:53:11;3.37;;;1.80;;
11313;SDS011;5712;48.858;9.206;2023-12-20T01:55:39;3.13;;;2.63;;
11313;SDS011;5712;48.858;9.206;2023-12-20T01:58:08;2.97;;;2.00;;
11313;SDS011;5712;48.858;9.206;2023-12-20T02:00:35;2.20;;;2.00;;
11313;SDS011;5712;48.858;9.206;2023-12-20T02:03:03;2.53;;;2.10;;
11313;SDS011;5712;48.858;9.206;2023-12-20T02:05:30;3.97;;;2.50;;
11313;SDS011;5712;48.858;9.206;2023-12-20T02:07:56;2.60;;;2.13;;
11313;SDS011;5712;48.858;9.206;2023-12-20T02:10:23;3.27;;;2.30;;
11313;SDS011;5712;48.858;9.206;2023-12-20T02:12:50;2.73;;;2.27;;
11313;SDS011;5712;48.858;9.206;2023-12-20T02:15:18;3.73;;;2.07;;
11313;SDS011;5712;48.858;9.206;2023-12-20T02:17:45;2.27;;;2.07;;
11313;SDS011;5712;48.858;9.206;2023-12-20T02:20:13;3.97;;;2.57;;
11313;SDS011;5712;48.858;9.206;2023-12-20T02:22:41;5.47;;;2.20;;
11313;SDS011;5712;48.858;9.206;2023-12-20T02:25:07;3.30;;;2.60;;
11313;SDS011;5712;48.858;9.206;2023-12-20T02:27:34;4.67;;;2.50;;
11313;SDS011;5712;48.858;9.206;2023-12-20T02:30:01;2.90;;;2.27;;
11313;SDS011;5712;48.858;9.206;2023-12-20T02:32:28;3.43;;;2.70;;
11313;SDS011;5712;48.858;9.206;2023-12-20T02:34:55;3.40;;;2.33;;
11313;SDS011;5712;48.858;9.206;2023-12-20T02:37:21;3.57;;;2.83;;
11313;SDS011;5712;48.858;9.206;2023-12-20T02:39:49;3.67;;;3.00;;
11313;SDS011;5712;48.858;9.206;2023-12-20T02:42:15;4.03;;;3.07;;
11313;SDS011;5712;48.858;9.206;2023-12-20T02:44:42;4.37;;;3.20;;
11313;SDS011;5712;48.858;9.206;2023-12-20T02:47:08;4.63;;;3.17;;
11313;SDS011;5712;48.858;9.206;2023-12-20T02:49:35;3.67;;;2.77;;
11313;SDS011;5712;48.858;9.206;2023-12-20T02:52:01;2.17;;;1.80;;
11313;SDS011;5712;48.858;9.206;2023-12-20T02:54:28;1.70;;;1.17;;
11313;SDS011;5712;48.858;9.206;2023-12-20T02:56:56;1.17;;;1.00;;
11313;SDS011;5712;48.858;9.206;2023-12-20T02:59:22;0.60;;;0.60;;
11313;SDS011;5712;48.858;9.206;2023-12-20T03:01:49;0.93;;;0.70;;
11313;SDS011;5712;48.858;9.206;2023-12-20T03:04:15;0.73;;;0.53;;
11313;SDS011;5712;48.858;9.206;2023-12-20T03:06:42;0.50;;;0.50;;
11313;SDS011;5712;48.858;9.206;2023-12-20T03:09:08;0.63;;;0.50;;
11313;SDS011;5712;48.858;9.206;2023-12-20T03:11:35;0.50;;;0.50;;
11313;SDS011;5712;48.858;9.206;2023-12-20T03:14:02;0.60;;;0.57;;
11313;SDS011;5712;48.858;9.206;2023-12-20T03:16:29;0.60;;;0.60;;
11313;SDS011;5712;48.858;9.206;2023-12-20T03:18:56;0.57;;;0.57;;
11313;SDS011;5712;48.858;9.206;2023-12-20T03:21:22;0.40;;;0.40;;
11313;SDS011;5712;48.858;9.206;2023-12-20T03:23:49;0.73;;;0.67;;
11313;SDS011;5712;48.858;9.206;2023-12-20T03:26:15;0.40;;;0.40;;
11313;SDS011;5712;48.858;9.206;2023-12-20T03:28:42;0.63;;;0.60;;
11313;SDS011;5712;48.858;9.206;2023-12-20T03:31:10;0.40;;;0.40;;
11313;SDS011;5712;48.858;9.206;2023-12-20T03:33:37;0.83;;;0.50;;
11313;SDS011;5712;48.858;9.206;2023-12-20T03:36:03;0.70;;;0.50;;
11313;SDS011;5712;48.858;9.206;2023-12-20T03:38:30;0.97;;;0.43;;
11313;SDS011;5712;48.858;9.206;2023-12-20T03:40:56;0.40;;;0.40;;
11313;SDS011;5712;48.858;9.206;2023-12-20T03:43:23;0.40;;;0.40;;
11313;SDS011;5712;48.858;9.206;2023-12-20T03:45:49;0.53;;;0.53;;
11313;SDS011;5712;48.858;9.206;2023-12-20T03:48:17;0.50;;;0.50;;
11313;SDS011;5712;48.858;9.206;2023-12-20T03:50:43;0.57;;;0.53;;
11313;SDS011;5712;48.858;9.206;2023-12-20T03:53:10;1.07;;;0.60;;
11313;SDS011;5712;48.858;9.206;2023-12-20T03:55:36;0.30;;;0.30;;
11313;SDS011;5712;48.858;9.206;2023-12-20T03:58:03;0.63;;;0.60;;
11313;SDS011;5712;48.858;9.206;2023-12-20T04:00:29;0.43;;;0.43;;
11313;SDS011;5712;48.858;9.206;2023-12-20T04:02:56;0.53;;;0.53;;
11313;SDS011;5712;48.858;9.206;2023-12-20T04:05:24;0.50;;;0.50;;
11313;SDS011;5712;48.858;9.206;2023-12-20T04:07:50;0.50;;;0.50;;
11313;SDS011;5712;48.858;9.206;2023-12-20T04:10:16;0.50;;;0.50;;
11313;SDS011;5712;48.858;9.206;2023-12-20T04:12:43;0.40;;;0.40;;
11313;SDS011;5712;48.858;9.206;2023-12-20T04:15:09;0.57;;;0.57;;
11313;SDS011;5712;48.858;9.206;2023-12-20T04:17:37;0.90;;;0.60;;
11313;SDS011;5712;48.858;9.206;2023-12-20T04:20:03;0.73;;;0.53;;
11313;SDS011;5712;48.858;9.206;2023-12-20T04:22:32;0.50;;;0.50;;
11313;SDS011;5712;48.858;9.206;2023-12-20T04:24:59;0.50;;;0.50;;
11313;SDS011;5712;48.858;9.206;2023-12-20T04:27:25;0.50;;;0.50;;
11313;SDS011;5712;48.858;9.206;2023-12-20T04:29:51;0.77;;;0.60;;
11313;SDS011;5712;48.858;9.206;2023-12-20T04:32:18;0.50;;;0.50;;
11313;SDS011;5712;48.858;9.206;2023-12-20T04:34:44;2.77;;;0.70;;
11313;SDS011;5712;48.858;9.206;2023-12-20T04:37:11;0.57;;;0.50;;
11313;SDS011;5712;48.858;9.206;2023-12-20T04:39:39;1.67;;;0.50;;
11313;SDS011;5712;48.858;9.206;2023-12-20T04:42:06;0.60;;;0.60;;
11313;SDS011;5712;48.858;9.206;2023-12-20T04:44:33;0.50;;;0.50;;
11313;SDS011;5712;48.858;9.206;2023-12-20T04:47:00;0.60;;;0.50;;
11313;SDS011;5712;48.858;9.206;2023-12-20T04:49:26;1.93;;;0.70;;
11313;SDS011;5712;48.858;9.206;2023-12-20T04:51:53;0.60;;;0.60;;
11313;SDS011;5712;48.858;9.206;2023-12-20T04:54:19;0.63;;;0.57;;
11313;SDS011;5712;48.858;9.206;2023-12-20T04:56:47;0.80;;;0.50;;
11313;SDS011;5712;48.858;9.206;2023-12-20T04:59:13;1.03;;;0.60;;
11313;SDS011;5712;48.858;9.206;2023-12-20T05:01:40;0.53;;;0.53;;
11313;SDS011;5712;48.858;9.206;2023-12-20T05:04:06;2.17;;;0.80;;
11313;SDS011;5712;48.858;9.206;2023-12-20T05:06:33;0.43;;;0.43;;
11313;SDS011;5712;48.858;9.206;2023-12-20T05:08:59;1.53;;;0.70;;
11313;SDS011;5712;48.858;9.206;2023-12-20T05:11:26;0.83;;;0.60;;
11313;SDS011;5712;48.858;9.206;2023-12-20T05:13:53;0.60;;;0.60;;
11313;SDS011;5712;48.858;9.206;2023-12-20T05:16:20;0.50;;;0.50;;
11313;SDS011;5712;48.858;9.206;2023-12-20T05:18:47;0.60;;;0.60;;
11313;SDS011;5712;48.858;9.206;2023-12-20T05:21:14;2.00;;;0.70;;
11313;SDS011;5712;48.858;9.206;2023-12-20T05:23:41;0.80;;;0.70;;
11313;SDS011;5712;48.858;9.206;2023-12-20T05:26:08;0.50;;;0.50;;
11313;SDS011;5712;48.858;9.206;2023-12-20T05:28:34;1.10;;;0.73;;
11313;SDS011;5712;48.858;9.206;2023-12-20T05:31:02;0.83;;;0.83;;
11313;SDS011;5712;48.858;9.206;2023-12-20T05:33:29;0.90;;;0.83;;
11313;SDS011;5712;48.858;9.206;2023-12-20T05:35:55;0.90;;;0.80;;
11313;SDS011;5712;48.858;9.206;2023-12-20T05:38:22;0.90;;;0.90;;
11313;SDS011;5712;48.858;9.206;2023-12-20T05:40:48;1.20;;;1.10;;
11313;SDS011;5712;48.858;9.206;2023-12-20T05:43:14;1.00;;;0.80;;
11313;SDS011;5712;48.858;9.206;2023-12-20T05:45:41;1.60;;;1.13;;
11313;SDS011;5712;48.858;9.206;2023-12-20T05:48:09;1.43;;;1.30;;
11313;SDS011;5712;48.858;9.206;2023-12-20T05:50:36;1.40;;;1.30;;
11313;SDS011;5712;48.858;9.206;2023-12-20T05:53:02;1.70;;;1.60;;
11313;SDS011;5712;48.858;9.206;2023-12-20T05:55:30;1.80;;;1.57;;
11313;SDS011;5712;48.858;9.206;2023-12-20T05:57:56;1.50;;;1.40;;
11313;SDS011;5712;48.858;9.206;2023-12-20T06:00:23;3.50;;;1.70;;
11313;SDS011;5712;48.858;9.206;2023-12-20T06:02:50;1.80;;;1.47;;
11313;SDS011;5712;48.858;9.206;2023-12-20T06:05:18;1.57;;;1.20;;
11313;SDS011;5712;48.858;9.206;2023-12-20T06:07:45;3.40;;;1.80;;
11313;SDS011;5712;48.858;9.206;2023-12-20T06:10:13;2.40;;;1.37;;
11313;SDS011;5712;48.858;9.206;2023-12-20T06:12:40;1.87;;;1.70;;
11313;SDS011;5712;48.858;9.206;2023-12-20T06:15:07;2.07;;;1.70;;
11313;SDS011;5712;48.858;9.206;2023-12-20T06:17:33;1.53;;;1.43;;
11313;SDS011;5712;48.858;9.206;2023-12-20T06:20:00;1.70;;;1.47;;
11313;SDS011;5712;48.858;9.206;2023-12-20T06:22:29;2.37;;;1.60;;
11313;SDS011;5712;48.858;9.206;2023-12-20T06:24:55;1.80;;;1.70;;
11313;SDS011;5712;48.858;9.206;2023-12-20T06:27:21;2.23;;;1.80;;
11313;SDS011;5712;48.858;9.206;2023-12-20T06:29:48;2.73;;;1.47;;
11313;SDS011;5712;48.858;9.206;2023-12-20T06:32:14;1.87;;;1.40;;
11313;SDS011;5712;48.858;9.206;2023-12-20T06:34:41;1.97;;;1.60;;
11313;SDS011;5712;48.858;9.206;2023-12-20T06:37:07;1.80;;;1.47;;
11313;SDS011;5712;48.858;9.206;2023-12-20T06:39:35;2.77;;;1.80;;
11313;SDS011;5712;48.858;9.206;2023-12-20T06:42:02;2.43;;;1.97;;
11313;SDS011;5712;48.858;9.206;2023-12-20T06:44:29;2.47;;;2.10;;
11313;SDS011;5712;48.858;9.206;2023-12-20T06:46:56;2.90;;;2.10;;
11313;SDS011;5712;48.858;9.206;2023-12-20T06:49:23;3.30;;;1.93;;
11313;SDS011;5712;48.858;9.206;2023-12-20T06:51:49;3.87;;;2.20;;
11313;SDS011;5712;48.858;9.206;2023-12-20T06:54:16;3.23;;;2.30;;
11313;SDS011;5712;48.858;9.206;2023-12-20T06:56:43;2.80;;;2.40;;
11313;SDS011;5712;48.858;9.206;2023-12-20T06:59:10;4.13;;;2.90;;
11313;SDS011;5712;48.858;9.206;2023-12-20T07:01:36;3.43;;;2.97;;
11313;SDS011;5712;48.858;9.206;2023-12-20T07:04:03;6.87;;;3.30;;
11313;SDS011;5712;48.858;9.206;2023-12-20T07:06:30;3.70;;;3.23;;
11313;SDS011;5712;48.858;9.206;2023-12-20T07:08:56;5.97;;;3.47;;
11313;SDS011;5712;48.858;9.206;2023-12-20T07:11:24;5.53;;;4.10;;
11313;SDS011;5712;48.858;9.206;2023-12-20T07:13:52;5.73;;;4.37;;
11313;SDS011;5712;48.858;9.206;2023-12-20T07:16:19;6.67;;;4.73;;
11313;SDS011;5712;48.858;9.206;2023-12-20T07:18:46;7.63;;;4.87;;
11313;SDS011;5712;48.858;9.206;2023-12-20T07:21:12;7.10;;;4.80;;
11313;SDS011;5712;48.858;9.206;2023-12-20T07:23:38;7.93;;;5.27;;
11313;SDS011;5712;48.858;9.206;2023-12-20T07:26:05;5.97;;;4.53;;
11313;SDS011;5712;48.858;9.206;2023-12-20T07:28:32;7.17;;;5.13;;
11313;SDS011;5712;48.858;9.206;2023-12-20T07:31:00;6.63;;;4.87;;
11313;SDS011;5712;48.858;9.206;2023-12-20T07:33:26;6.50;;;4.40;;
11313;SDS011;5712;48.858;9.206;2023-12-20T07:35:53;5.93;;;4.30;;
11313;SDS011;5712;48.858;9.206;2023-12-20T07:38:19;5.87;;;4.30;;
11313;SDS011;5712;48.858;9.206;2023-12-20T07:40:48;5.47;;;4.63;;
11313;SDS011;5712;48.858;9.206;2023-12-20T07:43:15;5.73;;;3.97;;
11313;SDS011;5712;48.858;9.206;2023-12-20T07:45:41;6.33;;;3.63;;
11313;SDS011;5712;48.858;9.206;2023-12-20T07:48:09;4.00;;;3.10;;
11313;SDS011;5712;48.858;9.206;2023-12-20T07:50:36;5.67;;;4.20;;
11313;SDS011;5712;48.858;9.206;2023-12-20T07:53:02;4.50;;;3.50;;
11313;SDS011;5712;48.858;9.206;2023-12-20T07:55:29;5.43;;;4.07;;
11313;SDS011;5712;48.858;9.206;2023-12-20T07:57:56;7.97;;;3.93;;
11313;SDS011;5712;48.858;9.206;2023-12-20T08:00:23;5.93;;;4.30;;
11313;SDS011;5712;48.858;9.206;2023-12-20T08:02:49;5.10;;;4.13;;
11313;SDS011;5712;48.858;9.206;2023-12-20T08:05:17;4.23;;;3.70;;
11313;SDS011;5712;48.858;9.206;2023-12-20T08:07:44;6.37;;;4.27;;
11313;SDS011;5712;48.858;9.206;2023-12-20T08:10:10;4.73;;;3.80;;
11313;SDS011;5712;48.858;9.206;2023-12-20T08:12:37;4.50;;;3.53;;
11313;SDS011;5712;48.858;9.206;2023-12-20T08:15:05;6.27;;;4.10;;
11313;SDS011;5712;48.858;9.206;2023-12-20T08:17:32;5.23;;;4.20;;
11313;SDS011;5712;48.858;9.206;2023-12-20T08:19:59;5.93;;;3.87;;
11313;SDS011;5712;48.858;9.206;2023-12-20T08:22:27;6.80;;;4.27;;
11313;SDS011;5712;48.858;9.206;2023-12-20T08:24:53;7.57;;;4.37;;
11313;SDS011;5712;48.858;9.206;2023-12-20T08:27:20;7.50;;;4.90;;
11313;SDS011;5712;48.858;9.206;2023-12-20T08:29:46;7.40;;;4.77;;
11313;SDS011;5712;48.858;9.206;2023-12-20T08:32:14;5.90;;;4.27;;
11313;SDS011;5712;48.858;9.206;2023-12-20T08:34:41;6.25;;;4.35;;
11313;SDS011;5712;48.858;9.206;2023-12-20T08:37:07;6.53;;;4.57;;
11313;SDS011;5712;48.858;9.206;2023-12-20T08:39:35;5.83;;;4.20;;
11313;SDS011;5712;48.858;9.206;2023-12-20T08:42:02;7.87;;;4.40;;
11313;SDS011;5712;48.858;9.206;2023-12-20T08:44:29;6.73;;;4.37;;
11313;SDS011;5712;48.858;9.206;2023-12-20T08:46:55;7.07;;;4.03;;
11313;SDS011;5712;48.858;9.206;2023-12-20T08:49:22;6.33;;;4.07;;
11313;SDS011;5712;48.858;9.206;2023-12-20T08:51:49;6.37;;;4.50;;
11313;SDS011;5712;48.858;9.206;2023-12-20T08:54:15;6.27;;;3.97;;
11313;SDS011;5712;48.858;9.206;2023-12-20T08:56:43;7.03;;;3.83;;
11313;SDS011;5712;48.858;9.206;2023-12-20T08:59:11;5.90;;;4.27;;
11313;SDS011;5712;48.858;9.206;2023-12-20T09:01:37;6.20;;;3.93;;
11313;SDS011;5712;48.858;9.206;2023-12-20T09:04:04;4.60;;;3.40;;
11313;SDS011;5712;48.858;9.206;2023-12-20T09:06:31;5.70;;;4.40;;
11313;SDS011;5712;48.858;9.206;2023-12-20T09:08:57;5.10;;;4.40;;
11313;SDS011;5712;48.858;9.206;2023-12-20T09:11:24;6.20;;;4.00;;
11313;SDS011;5712;48.858;9.206;2023-12-20T09:13:52;7.13;;;4.40;;
11313;SDS011;5712;48.858;9.206;2023-12-20T09:16:18;5.87;;;4.17;;
11313;SDS011;5712;48.858;9.206;2023-12-20T09:18:45;5.07;;;3.43;;
11313;SDS011;5712;48.858;9.206;2023-12-20T09:21:11;4.67;;;3.43;;
11313;SDS011;5712;48.858;9.206;2023-12-20T09:23:38;4.50;;;3.23;;
11313;SDS011;5712;48.858;9.206;2023-12-20T09:26:05;5.50;;;2.93;;
11313;SDS011;5712;48.858;9.206;2023-12-20T09:28:31;5.80;;;3.00;;
11313;SDS011;5712;48.858;9.206;2023-12-20T09:31:03;3.43;;;2.63;;
11313;SDS011;5712;48.858;9.206;2023-12-20T09:33:30;4.37;;;3.20;;
11313;SDS011;5712;48.858;9.206;2023-12-20T09:35:56;3.63;;;3.10;;
11313;SDS011;5712;48.858;9.206;2023-12-20T09:38:23;4.10;;;3.00;;
11313;SDS011;5712;48.858;9.206;2023-12-20T09:40:49;4.47;;;2.40;;
11313;SDS011;5712;48.858;9.206;2023-12-20T09:43:18;4.80;;;2.43;;
11313;SDS011;5712;48.858;9.206;2023-12-20T09:45:46;5.00;;;2.50;;
11313;SDS011;5712;48.858;9.206;2023-12-20T09:48:14;3.47;;;2.40;;
11313;SDS011;5712;48.858;9.206;2023-12-20T09:50:44;2.60;;;2.10;;
11313;SDS011;5712;48.858;9.206;2023-12-20T09:53:13;3.70;;;2.10;;
11313;SDS011;5712;48.858;9.206;2023-12-20T09:55:41;4.63;;;1.87;;
11313;SDS011;5712;48.858;9.206;2023-12-20T09:58:08;3.63;;;1.53;;
11313;SDS011;5712;48.858;9.206;2023-12-20T10:00:35;3.57;;;1.50;;
11313;SDS011;5712;48.858;9.206;2023-12-20T10:03:02;2.53;;;1.40;;
11313;SDS011;5712;48.858;9.206;2023-12-20T10:05:33;3.63;;;1.73;;
11313;SDS011;5712;48.858;9.206;2023-12-20T10:08:00;2.83;;;1.53;;
11313;SDS011;5712;48.858;9.206;2023-12-20T10:10:28;4.83;;;1.30;;
11313;SDS011;5712;48.858;9.206;2023-12-20T10:13:01;4.83;;;1.50;;
11313;SDS011;5712;48.858;9.206;2023-12-20T10:15:28;2.23;;;1.47;;
11313;SDS011;5712;48.858;9.206;2023-12-20T10:17:56;1.70;;;1.40;;
11313;SDS011;5712;48.858;9.206;2023-12-20T10:20:22;3.33;;;1.53;;
11313;SDS011;5712;48.858;9.206;2023-12-20T10:22:50;5.30;;;1.63;;
11313;SDS011;5712;48.858;9.206;2023-12-20T10:25:18;3.67;;;1.47;;
11313;SDS011;5712;48.858;9.206;2023-12-20T10:27:45;2.47;;;1.53;;
11313;SDS011;5712;48.858;9.206;2023-12-20T10:30:12;4.40;;;1.57;;
11313;SDS011;5712;48.858;9.206;2023-12-20T10:32:39;3.63;;;1.50;;
11313;SDS011;5712;48.858;9.206;2023-12-20T10:35:05;1.63;;;1.10;;
11313;SDS011;5712;48.858;9.206;2023-12-20T10:37:33;2.60;;;1.47;;
11313;SDS011;5712;48.858;9.206;2023-12-20T10:40:03;3.30;;;1.53;;
11313;SDS011;5712;48.858;9.206;2023-12-20T10:42:31;5.73;;;1.80;;
11313;SDS011;5712;48.858;9.206;2023-12-20T10:44:59;1.63;;;1.40;;
11313;SDS011;5712;48.858;9.206;2023-12-20T10:47:25;2.40;;;1.33;;
11313;SDS011;5712;48.858;9.206;2023-12-20T10:49:52;2.50;;;1.30;;
11313;SDS011;5712;48.858;9.206;2023-12-20T10:52:19;4.73;;;1.80;;
11313;SDS011;5712;48.858;9.206;2023-12-20T10:54:48;5.07;;;1.70;;
11313;SDS011;5712;48.858;9.206;2023-12-20T10:57:16;1.67;;;1.30;;
11313;SDS011;5712;48.858;9.206;2023-12-20T10:59:44;4.43;;;1.30;;
11313;SDS011;5712;48.858;9.206;2023-12-20T11:02:12;2.70;;;1.13;;
11313;SDS011;5712;48.858;9.206;2023-12-20T11:04:43;1.90;;;1.07;;
11313;SDS011;5712;48.858;9.206;2023-12-20T11:07:17;3.00;;;1.53;;
11313;SDS011;5712;48.858;9.206;2023-12-20T11:09:53;3.30;;;1.30;;
11313;SDS011;5712;48.858;9.206;2023-12-20T11:12:32;3.40;;;1.30;;
11313;SDS011;5712;48.858;9.206;2023-12-20T11:15:06;3.87;;;1.27;;
11313;SDS011;5712;48.858;9.206;2023-12-20T11:17:33;1.33;;;1.10;;
11313;SDS011;5712;48.858;9.206;2023-12-20T11:20:07;3.27;;;1.30;;
11313;SDS011;5712;48.858;9.206;2023-12-20T11:22:36;3.70;;;1.00;;
11313;SDS011;5712;48.858;9.206;2023-12-20T11:25:07;2.27;;;1.40;;
11313;SDS011;5712;48.858;9.206;2023-12-20T11:27:36;3.20;;;1.43;;
11313;SDS011;5712;48.858;9.206;2023-12-20T11:30:06;4.33;;;1.70;;
11313;SDS011;5712;48.858;9.206;2023-12-20T11:32:34;4.13;;;1.13;;
11313;SDS011;5712;48.858;9.206;2023-12-20T11:35:16;7.57;;;1.63;;
11313;SDS011;5712;48.858;9.206;2023-12-20T11:37:44;4.80;;;1.50;;
11313;SDS011;5712;48.858;9.206;2023-12-20T11:40:13;4.70;;;1.57;;
11313;SDS011;5712;48.858;9.206;2023-12-20T11:42:42;2.67;;;1.43;;
11313;SDS011;5712;48.858;9.206;2023-12-20T11:45:11;6.27;;;1.40;;
11313;SDS011;5712;48.858;9.206;2023-12-20T11:47:40;4.93;;;1.47;;
11313;SDS011;5712;48.858;9.206;2023-12-20T11:50:08;6.87;;;1.60;;
11313;SDS011;5712;48.858;9.206;2023-12-20T11:52:35;5.60;;;1.60;;
11313;SDS011;5712;48.858;9.206;2023-12-20T11:55:01;3.83;;;1.53;;
11313;SDS011;5712;48.858;9.206;2023-12-20T11:57:28;4.20;;;1.10;;
11313;SDS011;5712;48.858;9.206;2023-12-20T11:59:56;2.97;;;1.33;;
11313;SDS011;5712;48.858;9.206;2023-12-20T12:02:23;3.03;;;1.23;;
11313;SDS011;5712;48.858;9.206;2023-12-20T12:04:50;2.20;;;1.40;;
11313;SDS011;5712;48.858;9.206;2023-12-20T12:07:16;3.67;;;1.50;;
11313;SDS011;5712;48.858;9.206;2023-12-20T12:09:43;2.77;;;1.57;;
11313;SDS011;5712;48.858;9.206;2023-12-20T12:12:10;5.70;;;1.90;;
11313;SDS011;5712;48.858;9.206;2023-12-20T12:14:38;4.83;;;1.50;;
11313;SDS011;5712;48.858;9.206;2023-12-20T12:17:10;3.50;;;1.77;;
11313;SDS011;5712;48.858;9.206;2023-12-20T12:19:37;4.63;;;1.57;;
11313;SDS011;5712;48.858;9.206;2023-12-20T12:22:04;4.60;;;1.73;;
11313;SDS011;5712;48.858;9.206;2023-12-20T12:24:33;3.17;;;1.47;;
11313;SDS011;5712;48.858;9.206;2023-12-20T12:27:00;9.57;;;1.90;;
11313;SDS011;5712;48.858;9.206;2023-12-20T12:29:27;3.17;;;1.47;;
11313;SDS011;5712;48.858;9.206;2023-12-20T12:31:53;5.17;;;1.50;;
11313;SDS011;5712;48.858;9.206;2023-12-20T12:34:22;3.43;;;1.50;;
11313;SDS011;5712;48.858;9.206;2023-12-20T12:36:48;1.87;;;1.30;;
11313;SDS011;5712;48.858;9.206;2023-12-20T12:39:15;3.77;;;1.67;;
11313;SDS011;5712;48.858;9.206;2023-12-20T12:41:44;3.93;;;1.50;;
11313;SDS011;5712;48.858;9.206;2023-12-20T12:44:10;4.50;;;1.73;;
11313;SDS011;5712;48.858;9.206;2023-12-20T12:46:37;1.77;;;1.27;;
11313;SDS011;5712;48.858;9.206;2023-12-20T12:49:03;3.27;;;1.47;;
11313;SDS011;5712;48.858;9.206;2023-12-20T12:51:31;2.83;;;1.57;;
11313;SDS011;5712;48.858;9.206;2023-12-20T12:53:58;5.97;;;1.40;;
11313;SDS011;5712;48.858;9.206;2023-12-20T12:56:24;1.93;;;1.40;;
11313;SDS011;5712;48.858;9.206;2023-12-20T12:58:51;3.87;;;1.40;;
11313;SDS011;5712;48.858;9.206;2023-12-20T13:01:17;2.53;;;1.10;;
11313;SDS011;5712;48.858;9.206;2023-12-20T13:03:44;2.97;;;1.27;;
11313;SDS011;5712;48.858;9.206;2023-12-20T13:06:10;2.40;;;1.20;;
11313;SDS011;5712;48.858;9.206;2023-12-20T13:08:38;2.00;;;1.30;;
11313;SDS011;5712;48.858;9.206;2023-12-20T13:11:05;1.93;;;1.40;;
11313;SDS011;5712;48.858;9.206;2023-12-20T13:13:31;4.17;;;1.30;;
11313;SDS011;5712;48.858;9.206;2023-12-20T13:15:58;3.38;;;1.45;;
11313;SDS011;5712;48.858;9.206;2023-12-20T13:18:25;1.97;;;1.00;;
11313;SDS011;5712;48.858;9.206;2023-12-20T13:20:52;2.33;;;1.20;;
11313;SDS011;5712;48.858;9.206;2023-12-20T13:23:19;3.97;;;1.50;;
11313;SDS011;5712;48.858;9.206;2023-12-20T13:25:46;4.53;;;1.13;;
11313;SDS011;5712;48.858;9.206;2023-12-20T13:28:13;4.97;;;1.20;;
11313;SDS011;5712;48.858;9.206;2023-12-20T13:30:40;3.23;;;1.13;;
11313;SDS011;5712;48.858;9.206;2023-12-20T13:33:06;7.13;;;1.10;;
11313;SDS011;5712;48.858;9.206;2023-12-20T13:35:33;5.53;;;1.30;;
11313;SDS011;5712;48.858;9.206;2023-12-20T13:38:00;2.80;;;1.10;;
11313;SDS011;5712;48.858;9.206;2023-12-20T13:40:27;2.83;;;1.50;;
11313;SDS011;5712;48.858;9.206;2023-12-20T13:42:54;3.70;;;1.33;;
11313;SDS011;5712;48.858;9.206;2023-12-20T13:45:21;5.20;;;1.60;;
11313;SDS011;5712;48.858;9.206;2023-12-20T13:47:48;3.97;;;1.33;;
11313;SDS011;5712;48.858;9.206;2023-12-20T13:50:14;4.03;;;1.43;;
11313;SDS011;5712;48.858;9.206;2023-12-20T13:52:41;3.60;;;1.33;;
11313;SDS011;5712;48.858;9.206;2023-12-20T13:55:08;2.80;;;1.10;;
11313;SDS011;5712;48.858;9.206;2023-12-20T13:57:35;2.63;;;1.20;;
11313;SDS011;5712;48.858;9.206;2023-12-20T14:00:05;2.80;;;1.13;;
11313;SDS011;5712;48.858;9.206;2023-12-20T14:02:39;2.17;;;1.30;;
11313;SDS011;5712;48.858;9.206;2023-12-20T14:05:06;4.33;;;1.40;;
11313;SDS011;5712;48.858;9.206;2023-12-20T14:07:32;4.00;;;1.30;;
11313;SDS011;5712;48.858;9.206;2023-12-20T14:09:59;2.13;;;1.37;;
11313;SDS011;5712;48.858;9.206;2023-12-20T14:12:25;6.60;;;1.73;;
11313;SDS011;5712;48.858;9.206;2023-12-20T14:14:52;3.00;;;1.50;;
11313;SDS011;5712;48.858;9.206;2023-12-20T14:17:22;3.60;;;1.37;;
11313;SDS011;5712;48.858;9.206;2023-12-20T14:19:48;7.23;;;1.47;;
11313;SDS011;5712;48.858;9.206;2023-12-20T14:22:16;4.10;;;1.30;;
11313;SDS011;5712;48.858;9.206;2023-12-20T14:24:43;3.57;;;1.43;;
11313;SDS011;5712;48.858;9.206;2023-12-20T14:27:10;3.47;;;1.37;;
11313;SDS011;5712;48.858;9.206;2023-12-20T14:29:38;3.03;;;1.63;;
11313;SDS011;5712;48.858;9.206;2023-12-20T14:32:05;3.20;;;1.43;;
11313;SDS011;5712;48.858;9.206;2023-12-20T14:34:33;1.83;;;1.37;;
11313;SDS011;5712;48.858;9.206;2023-12-20T14:36:59;2.03;;;1.10;;
11313;SDS011;5712;48.858;9.206;2023-12-20T14:39:26;3.40;;;1.17;;
11313;SDS011;5712;48.858;9.206;2023-12-20T14:41:52;3.13;;;1.60;;
11313;SDS011;5712;48.858;9.206;2023-12-20T14:44:19;3.23;;;1.33;;
11313;SDS011;5712;48.858;9.206;2023-12-20T14:46:46;2.50;;;1.30;;
11313;SDS011;5712;48.858;9.206;2023-12-20T14:49:13;2.30;;;1.30;;
11313;SDS011;5712;48.858;9.206;2023-12-20T14:51:43;4.97;;;1.70;;
11313;SDS011;5712;48.858;9.206;2023-12-20T14:54:09;3.43;;;1.47;;
11313;SDS011;5712;48.858;9.206;2023-12-20T14:56:36;4.77;;;2.10;;
11313;SDS011;5712;48.858;9.206;2023-12-20T14:59:02;2.93;;;1.50;;